createdAt,value
2022-10-23T00:00:15.868Z,5.83
2022-10-23T00:02:42.650Z,6.87
2022-10-23T00:05:10.743Z,6.80
2022-10-23T00:07:37.431Z,6.53
2022-10-23T00:10:05.112Z,6.63
2022-10-23T00:12:31.874Z,6.30
2022-10-23T00:14:58.471Z,6.80
2022-10-23T00:17:25.797Z,7.43
2022-10-23T00:19:52.435Z,6.90
2022-10-23T00:22:19.037Z,7.13
2022-10-23T00:24:45.715Z,6.93
2022-10-23T00:27:12.296Z,7.60
2022-10-23T00:29:38.891Z,7.87
2022-10-23T00:32:05.450Z,8.07
2022-10-23T00:34:32.724Z,7.83
2022-10-23T00:36:59.379Z,7.87
2022-10-23T00:39:25.951Z,7.77
2022-10-23T00:41:52.793Z,8.07
2022-10-23T00:44:57.064Z,8.17
2022-10-23T00:47:23.652Z,9.03
2022-10-23T00:49:50.904Z,8.37
2022-10-23T00:52:17.480Z,8.50
2022-10-23T00:54:44.878Z,8.67
2022-10-23T00:57:14.567Z,8.10
2022-10-23T00:59:41.477Z,7.40
2022-10-23T01:02:08.772Z,7.93
2022-10-23T01:04:36.781Z,8.47
2022-10-23T01:07:10.529Z,8.73
2022-10-23T01:09:42.282Z,8.10
2022-10-23T01:12:14.870Z,7.97
2022-10-23T01:14:50.046Z,7.87
2022-10-23T01:17:23.095Z,8.07
2022-10-23T01:19:59.824Z,8.80
2022-10-23T01:23:07.363Z,6.90
2022-10-23T01:25:54.066Z,7.90
2022-10-23T01:28:25.930Z,8.27
2022-10-23T01:30:56.938Z,8.07
2022-10-23T01:33:27.232Z,7.80
2022-10-23T01:35:59.458Z,8.43
2022-10-23T01:38:35.176Z,7.67
2022-10-23T01:41:07.042Z,7.63
2022-10-23T01:43:41.649Z,7.47
2022-10-23T01:46:13.555Z,7.73
2022-10-23T01:48:42.760Z,8.03
2022-10-23T01:51:12.898Z,8.33
2022-10-23T01:53:43.124Z,7.30
2022-10-23T01:56:12.593Z,9.20
2022-10-23T01:58:42.208Z,7.83
2022-10-23T02:01:11.236Z,7.83
2022-10-23T02:03:41.368Z,8.20
2022-10-23T02:06:08.375Z,7.40
2022-10-23T02:08:35.305Z,8.03
2022-10-23T02:11:07.986Z,7.30
2022-10-23T02:13:42.305Z,7.67
2022-10-23T02:16:18.898Z,7.90
2022-10-23T02:18:54.941Z,8.10
2022-10-23T02:21:27.398Z,7.83
2022-10-23T02:24:00.685Z,7.17
2022-10-23T02:26:33.005Z,8.03
2022-10-23T02:29:06.789Z,8.03
2022-10-23T02:31:33.406Z,7.80
2022-10-23T02:34:00.345Z,7.40
2022-10-23T02:36:27.025Z,7.97
2022-10-23T02:38:53.574Z,8.83
2022-10-23T02:41:30.627Z,8.10
2022-10-23T02:44:10.371Z,7.93
2022-10-23T02:46:49.843Z,7.27
2022-10-23T02:49:22.972Z,7.83
2022-10-23T02:52:00.099Z,7.77
2022-10-23T02:54:36.476Z,7.87
2022-10-23T02:57:12.604Z,8.17
2022-10-23T02:59:43.680Z,7.57
2022-10-23T03:02:19.627Z,7.80
2022-10-23T03:04:47.518Z,8.23
2022-10-23T03:07:14.793Z,8.03
2022-10-23T03:09:41.482Z,8.37
2022-10-23T03:12:08.101Z,7.33
2022-10-23T03:14:34.711Z,8.40
2022-10-23T03:17:01.906Z,8.07
2022-10-23T03:19:28.430Z,8.53
2022-10-23T03:21:54.980Z,8.00
2022-10-23T03:24:21.607Z,8.10
2022-10-23T03:26:48.146Z,8.17
2022-10-23T03:29:14.859Z,8.37
2022-10-23T03:31:41.546Z,8.37
2022-10-23T03:34:10.790Z,8.27
2022-10-23T03:36:39.955Z,10.70
2022-10-23T03:39:06.675Z,9.80
2022-10-23T03:41:34.273Z,8.87
2022-10-23T03:44:01.192Z,8.87
2022-10-23T03:46:27.910Z,8.43
2022-10-23T03:48:54.756Z,8.20
2022-10-23T03:51:22.633Z,7.90
2022-10-23T03:53:49.389Z,8.90
2022-10-23T03:56:16.167Z,8.20
2022-10-23T03:58:42.911Z,8.20
2022-10-23T04:01:12.394Z,8.60
2022-10-23T04:03:39.073Z,9.53
2022-10-23T04:06:06.133Z,8.50
2022-10-23T04:08:33.356Z,8.50
2022-10-23T04:11:00.030Z,8.00
2022-10-23T04:13:26.936Z,8.70
2022-10-23T04:15:53.711Z,8.83
2022-10-23T04:18:20.344Z,9.13
2022-10-23T04:20:47.330Z,9.10
2022-10-23T04:23:14.120Z,9.97
2022-10-23T04:25:41.725Z,9.97
2022-10-23T04:28:08.374Z,8.83
2022-10-23T04:30:35.177Z,9.70
2022-10-23T04:33:01.754Z,10.20
2022-10-23T04:35:28.332Z,10.63
2022-10-23T04:37:54.975Z,9.33
2022-10-23T04:40:21.739Z,9.90
2022-10-23T04:42:49.005Z,9.83
2022-10-23T04:45:15.709Z,10.20
2022-10-23T04:47:42.315Z,9.87
2022-10-23T04:50:09.076Z,9.87
2022-10-23T04:52:35.725Z,9.10
2022-10-23T04:55:02.337Z,9.87
2022-10-23T04:57:28.912Z,10.27
2022-10-23T04:59:56.097Z,12.47
2022-10-23T05:02:23.649Z,11.47
2022-10-23T05:04:50.650Z,12.47
2022-10-23T05:09:51.291Z,10.63
2022-10-23T05:12:18.433Z,9.97
2022-10-23T05:14:45.085Z,11.93
2022-10-23T05:17:16.999Z,11.63
2022-10-23T05:19:47.907Z,15.07
2022-10-23T05:22:15.124Z,16.83
2022-10-23T05:24:41.721Z,14.87
2022-10-23T05:27:08.429Z,14.70
2022-10-23T05:29:34.960Z,13.43
2022-10-23T05:32:05.255Z,12.97
2022-10-23T05:34:35.036Z,13.90
2022-10-23T05:37:02.069Z,14.13
2022-10-23T05:39:29.018Z,13.53
2022-10-23T05:41:55.614Z,13.47
2022-10-23T05:44:22.191Z,14.70
2022-10-23T05:46:48.743Z,14.40
2022-10-23T05:49:15.402Z,12.83
2022-10-23T05:51:42.693Z,12.37
2022-10-23T05:54:09.292Z,12.33
2022-10-23T05:56:37.518Z,12.63
2022-10-23T05:59:04.655Z,12.60
2022-10-23T06:01:31.703Z,12.13
2022-10-23T06:03:58.809Z,12.80
2022-10-23T06:06:25.490Z,11.63
2022-10-23T06:08:52.735Z,12.40
2022-10-23T06:11:20.780Z,11.10
2022-10-23T06:13:47.987Z,10.37
2022-10-23T06:16:16.240Z,11.00
2022-10-23T06:18:43.302Z,12.17
2022-10-23T06:21:10.449Z,11.50
2022-10-23T06:23:38.601Z,11.77
2022-10-23T06:26:07.949Z,11.40
2022-10-23T06:28:35.073Z,10.37
2022-10-23T06:31:09.615Z,9.90
2022-10-23T06:33:36.220Z,10.00
2022-10-23T06:36:04.694Z,9.83
2022-10-23T06:38:35.899Z,9.30
2022-10-23T06:41:03.779Z,10.73
2022-10-23T06:43:31.006Z,10.30
2022-10-23T06:46:01.347Z,10.40
2022-10-23T06:48:27.915Z,9.47
2022-10-23T06:50:55.122Z,9.67
2022-10-23T06:53:24.063Z,10.10
2022-10-23T06:55:53.062Z,11.30
2022-10-23T06:58:22.016Z,11.40
2022-10-23T07:00:49.416Z,9.90
2022-10-23T07:03:16.033Z,11.40
2022-10-23T07:05:44.100Z,12.60
2022-10-23T07:08:11.246Z,12.93
2022-10-23T07:10:37.973Z,13.23
2022-10-23T07:13:04.603Z,13.57
2022-10-23T07:15:31.152Z,14.17
2022-10-23T07:17:58.363Z,13.30
2022-10-23T07:20:25.065Z,13.57
2022-10-23T07:22:52.715Z,18.07
2022-10-23T07:25:19.369Z,15.23
2022-10-23T07:27:46.217Z,14.27
2022-10-23T07:30:14.173Z,11.60
2022-10-23T07:32:41.158Z,11.73
2022-10-23T07:35:10.769Z,11.63
2022-10-23T07:37:37.448Z,11.37
2022-10-23T07:40:04.698Z,12.33
2022-10-23T07:42:31.712Z,11.10
2022-10-23T07:44:58.319Z,11.60
2022-10-23T07:47:25.068Z,10.43
2022-10-23T07:49:51.655Z,11.77
2022-10-23T07:52:18.871Z,11.90
2022-10-23T07:54:45.500Z,11.37
2022-10-23T07:57:12.103Z,10.77
2022-10-23T07:59:38.749Z,10.87
2022-10-23T08:02:10.934Z,10.20
2022-10-23T08:04:37.648Z,11.23
2022-10-23T08:07:04.201Z,10.20
2022-10-23T08:09:31.519Z,9.77
2022-10-23T08:11:58.317Z,10.00
2022-10-23T08:14:24.909Z,10.20
2022-10-23T08:16:51.696Z,10.40
2022-10-23T08:19:18.486Z,9.63
2022-10-23T08:21:45.164Z,10.17
2022-10-23T08:24:13.070Z,8.80
2022-10-23T08:26:40.616Z,9.03
2022-10-23T08:29:07.218Z,8.90
2022-10-23T08:31:33.875Z,8.77
2022-10-23T08:34:00.507Z,8.47
2022-10-23T08:36:28.826Z,9.10
2022-10-23T08:38:57.434Z,7.97
2022-10-23T08:41:27.852Z,7.07
2022-10-23T08:44:01.413Z,7.17
2022-10-23T08:46:32.204Z,8.73
2022-10-23T08:49:12.540Z,7.60
2022-10-23T08:51:43.026Z,6.93
2022-10-23T08:54:15.793Z,6.90
2022-10-23T08:56:46.873Z,6.43
2022-10-23T08:59:22.730Z,6.57
2022-10-23T09:01:55.424Z,6.67
2022-10-23T09:04:22.185Z,5.57
2022-10-23T09:06:57.443Z,5.63
2022-10-23T09:09:46.272Z,5.97
2022-10-23T09:12:16.941Z,6.10
2022-10-23T09:15:06.889Z,6.43
2022-10-23T09:17:37.226Z,6.23
2022-10-23T09:20:14.055Z,6.53
2022-10-23T09:22:41.766Z,5.97
2022-10-23T09:25:10.259Z,5.40
2022-10-23T09:27:37.125Z,5.47
2022-10-23T09:30:05.757Z,5.63
2022-10-23T09:32:34.252Z,6.00
2022-10-23T09:35:00.988Z,5.23
2022-10-23T09:37:30.405Z,5.07
2022-10-23T09:40:18.475Z,4.93
2022-10-23T09:42:54.529Z,5.07
2022-10-23T09:45:24.287Z,5.47
2022-10-23T09:47:50.948Z,5.73
2022-10-23T09:50:20.268Z,5.50
2022-10-23T09:52:52.443Z,5.30
2022-10-23T09:55:22.478Z,5.07
2022-10-23T09:57:50.094Z,4.73
2022-10-23T10:00:19.846Z,4.63
2022-10-23T10:02:57.559Z,4.97
2022-10-23T10:05:25.812Z,5.13
2022-10-23T10:08:03.881Z,4.50
2022-10-23T10:10:37.299Z,4.90
2022-10-23T10:13:11.862Z,3.87
2022-10-23T10:15:48.509Z,3.90
2022-10-23T10:18:21.235Z,4.40
2022-10-23T10:20:59.747Z,3.67
2022-10-23T10:23:33.220Z,3.50
2022-10-23T10:26:07.635Z,3.60
2022-10-23T10:28:58.933Z,3.60
2022-10-23T10:31:34.739Z,4.20
2022-10-23T10:34:10.104Z,3.20
2022-10-23T10:36:49.211Z,3.70
2022-10-23T10:39:27.277Z,3.73
2022-10-23T10:42:13.391Z,3.30
2022-10-23T10:44:57.138Z,3.63
2022-10-23T10:47:31.173Z,3.80
2022-10-23T10:50:14.742Z,3.77
2022-10-23T10:52:49.295Z,4.27
2022-10-23T10:55:21.557Z,4.40
2022-10-23T10:57:59.853Z,3.63
2022-10-23T11:00:29.915Z,3.60
2022-10-23T11:03:01.960Z,3.97
2022-10-23T11:05:33.296Z,4.03
2022-10-23T11:08:07.718Z,5.73
2022-10-23T11:10:38.522Z,4.03
2022-10-23T11:13:05.169Z,3.80
2022-10-23T11:15:39.649Z,3.40
2022-10-23T11:18:14.607Z,3.47
2022-10-23T11:20:57.259Z,4.13
2022-10-23T11:23:42.129Z,3.70
2022-10-23T11:26:19.934Z,3.70
2022-10-23T11:29:09.355Z,3.20
2022-10-23T11:31:44.376Z,4.00
2022-10-23T11:34:42.931Z,3.10
2022-10-23T11:37:15.396Z,3.40
2022-10-23T11:39:59.185Z,3.37
2022-10-23T11:42:45.522Z,3.37
2022-10-23T11:45:27.437Z,2.67
2022-10-23T11:47:57.628Z,3.33
2022-10-23T11:50:30.588Z,3.17
2022-10-23T11:53:20.290Z,3.17
2022-10-23T11:56:03.475Z,3.50
2022-10-23T11:58:42.491Z,2.90
2022-10-23T12:01:25.610Z,2.97
2022-10-23T12:03:55.336Z,2.90
2022-10-23T12:06:25.819Z,2.77
2022-10-23T12:08:56.976Z,3.40
2022-10-23T12:11:42.798Z,3.30
2022-10-23T12:14:28.776Z,2.93
2022-10-23T12:16:55.767Z,3.27
2022-10-23T12:19:24.571Z,2.53
2022-10-23T12:21:52.530Z,2.90
2022-10-23T12:24:39.206Z,2.45
2022-10-23T12:27:14.332Z,2.88
2022-10-23T12:29:56.439Z,3.47
2022-10-23T12:32:35.920Z,3.00
2022-10-23T12:35:46.960Z,2.63
2022-10-23T12:38:17.446Z,2.47
2022-10-23T12:40:46.098Z,2.77
2022-10-23T12:43:26.490Z,2.72
2022-10-23T12:45:55.034Z,2.53
2022-10-23T12:48:23.358Z,2.87
2022-10-23T12:50:51.050Z,2.23
2022-10-23T12:53:19.221Z,3.03
2022-10-23T12:55:51.079Z,3.50
2022-10-23T12:58:21.938Z,2.30
2022-10-23T13:00:53.046Z,2.50
2022-10-23T13:03:21.764Z,2.43
2022-10-23T13:05:50.189Z,2.20
2022-10-23T13:08:18.044Z,2.60
2022-10-23T13:10:45.292Z,2.03
2022-10-23T13:13:14.164Z,2.70
2022-10-23T13:15:42.954Z,2.50
2022-10-23T13:18:13.802Z,2.43
2022-10-23T13:20:44.318Z,2.70
2022-10-23T13:23:18.311Z,2.37
2022-10-23T13:25:54.401Z,2.70
2022-10-23T13:28:41.242Z,2.60
2022-10-23T13:31:25.286Z,2.70
2022-10-23T13:34:18.498Z,2.20
2022-10-23T13:36:55.204Z,2.47
2022-10-23T13:39:26.539Z,2.70
2022-10-23T13:41:54.047Z,2.43
2022-10-23T13:44:23.934Z,3.30
2022-10-23T13:46:52.063Z,3.13
2022-10-23T13:49:19.593Z,2.50
2022-10-23T13:51:49.140Z,2.47
2022-10-23T13:54:18.855Z,3.20
2022-10-23T13:56:45.488Z,2.73
2022-10-23T13:59:12.394Z,2.73
2022-10-23T14:01:40.173Z,3.13
2022-10-23T14:04:08.352Z,2.80
2022-10-23T14:06:36.740Z,2.87
2022-10-23T14:09:04.363Z,2.70
2022-10-23T14:11:31.680Z,2.23
2022-10-23T14:14:01.578Z,2.90
2022-10-23T14:16:28.455Z,2.37
2022-10-23T14:18:56.269Z,2.73
2022-10-23T14:21:24.307Z,2.50
2022-10-23T14:23:52.220Z,2.70
2022-10-23T14:26:21.195Z,3.00
2022-10-23T14:28:47.887Z,3.07
2022-10-23T14:31:16.193Z,3.07
2022-10-23T14:33:44.867Z,2.63
2022-10-23T14:36:12.657Z,3.67
2022-10-23T14:38:39.577Z,2.53
2022-10-23T14:41:11.119Z,3.33
2022-10-23T14:43:38.047Z,3.23
2022-10-23T14:46:13.617Z,3.43
2022-10-23T14:48:42.414Z,3.97
2022-10-23T14:51:18.081Z,2.93
2022-10-23T14:53:44.918Z,3.33
2022-10-23T14:56:11.495Z,2.87
2022-10-23T14:58:38.106Z,2.80
2022-10-23T15:01:05.084Z,3.30
2022-10-23T15:03:31.756Z,3.67
2022-10-23T15:05:58.422Z,3.73
2022-10-23T15:08:26.003Z,3.53
2022-10-23T15:10:52.571Z,4.30
2022-10-23T15:13:19.214Z,4.43
2022-10-23T15:15:45.899Z,4.17
2022-10-23T15:18:12.426Z,3.50
2022-10-23T15:20:41.199Z,3.17
2022-10-23T15:23:07.878Z,3.50
2022-10-23T15:25:35.080Z,3.43
2022-10-23T15:28:01.675Z,3.07
2022-10-23T15:30:28.248Z,3.97
2022-10-23T15:32:54.773Z,3.37
2022-10-23T15:35:21.382Z,3.93
2022-10-23T15:37:47.909Z,4.00
2022-10-23T15:40:14.501Z,3.43
2022-10-23T15:42:42.084Z,3.73
2022-10-23T15:45:12.562Z,3.70
2022-10-23T15:47:39.138Z,3.83
2022-10-23T15:50:06.982Z,3.57
2022-10-23T15:52:33.634Z,2.77
2022-10-23T15:55:00.174Z,3.83
2022-10-23T15:57:27.175Z,3.77
2022-10-23T15:59:54.986Z,4.33
2022-10-23T16:02:22.463Z,3.93
2022-10-23T16:04:49.162Z,4.40
2022-10-23T16:07:15.795Z,3.50
2022-10-23T16:09:42.474Z,4.03
2022-10-23T16:12:09.336Z,4.00
2022-10-23T16:14:36.135Z,3.43
2022-10-23T16:17:03.433Z,3.60
2022-10-23T16:19:30.012Z,4.17
2022-10-23T16:21:56.640Z,4.20
2022-10-23T16:24:23.264Z,3.93
2022-10-23T16:26:52.340Z,3.80
2022-10-23T16:29:19.691Z,4.13
2022-10-23T16:31:46.651Z,3.97
2022-10-23T16:34:13.827Z,4.30
2022-10-23T16:36:41.077Z,5.10
2022-10-23T16:39:09.315Z,5.43
2022-10-23T16:41:36.427Z,4.33
2022-10-23T16:44:03.135Z,4.63
2022-10-23T16:46:29.673Z,4.83
2022-10-23T16:48:56.280Z,5.50
2022-10-23T16:51:25.725Z,5.43
2022-10-23T16:53:53.226Z,5.47
2022-10-23T16:56:22.311Z,5.03
2022-10-23T16:58:49.471Z,4.40
2022-10-23T17:01:18.724Z,4.90
2022-10-23T17:03:47.530Z,5.13
2022-10-23T17:06:16.668Z,5.90
2022-10-23T17:08:44.368Z,5.50
2022-10-23T17:11:13.175Z,5.70
2022-10-23T17:13:42.137Z,6.03
2022-10-23T17:16:10.852Z,5.27
2022-10-23T17:18:41.369Z,5.60
2022-10-23T17:21:10.733Z,6.07
2022-10-23T17:23:37.394Z,6.67
2022-10-23T17:26:07.228Z,7.83
2022-10-23T17:28:39.028Z,6.67
2022-10-23T17:31:12.883Z,5.83
2022-10-23T17:33:40.441Z,5.20
2022-10-23T17:36:08.306Z,5.87
2022-10-23T17:38:36.041Z,5.73
2022-10-23T17:41:02.936Z,5.40
2022-10-23T17:43:30.256Z,6.00
2022-10-23T17:45:57.603Z,5.90
2022-10-23T17:48:24.357Z,5.73
2022-10-23T17:51:01.838Z,6.07
2022-10-23T17:53:28.893Z,5.80
2022-10-23T17:55:55.751Z,6.27
2022-10-23T17:58:22.332Z,5.90
2022-10-23T18:00:53.695Z,5.30
2022-10-23T18:03:20.254Z,5.83
2022-10-23T18:05:47.003Z,5.83
2022-10-23T18:08:13.761Z,5.60
2022-10-23T18:10:40.299Z,5.83
2022-10-23T18:13:06.888Z,5.30
2022-10-23T18:15:34.295Z,5.27
2022-10-23T18:18:06.975Z,5.83
2022-10-23T18:20:38.767Z,6.10
2022-10-23T18:23:05.526Z,5.63
2022-10-23T18:25:32.421Z,5.43
2022-10-23T18:28:01.805Z,5.43
2022-10-23T18:30:29.405Z,5.30
2022-10-23T18:32:57.421Z,5.33
2022-10-23T18:35:25.995Z,5.37
2022-10-23T18:37:52.578Z,5.03
2022-10-23T18:40:20.552Z,4.87
2022-10-23T18:42:48.759Z,5.83
2022-10-23T18:45:16.290Z,6.03
2022-10-23T18:47:43.095Z,5.93
2022-10-23T18:50:10.555Z,5.17
2022-10-23T18:52:38.153Z,5.70
2022-10-23T18:55:06.358Z,5.77
2022-10-23T18:57:33.439Z,6.17
2022-10-23T19:00:00.139Z,6.37
2022-10-23T19:02:27.394Z,5.50
2022-10-23T19:04:54.859Z,6.97
2022-10-23T19:07:21.908Z,5.60
2022-10-23T19:09:49.273Z,5.13
2022-10-23T19:12:16.605Z,5.77
2022-10-23T19:14:43.784Z,7.40
2022-10-23T19:17:17.531Z,5.87
2022-10-23T19:19:48.386Z,5.53
2022-10-23T19:22:21.630Z,5.53
2022-10-23T19:24:54.465Z,5.63
2022-10-23T19:27:21.470Z,6.03
2022-10-23T19:29:50.679Z,5.67
2022-10-23T19:32:17.575Z,5.83
2022-10-23T19:34:44.743Z,5.97
2022-10-23T19:37:11.485Z,5.63
2022-10-23T19:39:38.127Z,5.63
2022-10-23T19:42:07.916Z,4.90
2022-10-23T19:44:34.654Z,5.57
2022-10-23T19:47:02.621Z,5.50
2022-10-23T19:49:29.198Z,5.33
2022-10-23T19:51:58.657Z,5.37
2022-10-23T19:54:25.225Z,5.63
2022-10-23T19:56:52.053Z,5.83
2022-10-23T19:59:19.688Z,5.60
2022-10-23T20:01:48.839Z,6.00
2022-10-23T20:04:16.630Z,5.83
2022-10-23T20:06:43.276Z,5.70
2022-10-23T20:09:10.081Z,5.73
2022-10-23T20:11:38.970Z,5.40
2022-10-23T20:14:06.507Z,5.57
2022-10-23T20:16:35.626Z,5.27
2022-10-23T20:19:03.442Z,5.63
2022-10-23T20:21:31.565Z,5.57
2022-10-23T20:23:58.791Z,5.43
2022-10-23T20:26:26.341Z,7.10
2022-10-23T20:28:54.657Z,7.13
2022-10-23T20:31:23.040Z,6.07
2022-10-23T20:33:51.282Z,6.00
2022-10-23T20:36:26.936Z,5.93
2022-10-23T20:38:54.074Z,5.50
2022-10-23T20:41:24.254Z,6.53
2022-10-23T20:43:51.307Z,6.10
2022-10-23T20:46:18.079Z,5.57
2022-10-23T20:48:45.388Z,6.23
2022-10-23T20:51:15.346Z,6.03
2022-10-23T20:53:43.085Z,6.23
2022-10-23T20:56:12.822Z,6.10
2022-10-23T20:58:39.910Z,6.43
2022-10-23T21:01:09.140Z,6.47
2022-10-23T21:03:38.420Z,6.10
2022-10-23T21:06:07.022Z,6.60
2022-10-23T21:08:34.574Z,6.30
2022-10-23T21:11:01.293Z,6.40
2022-10-23T21:13:28.630Z,6.27
2022-10-23T21:15:55.940Z,6.33
2022-10-23T21:18:33.989Z,8.27
2022-10-23T21:21:11.085Z,7.80
2022-10-23T21:23:39.031Z,8.20
2022-10-23T21:26:07.559Z,8.50
2022-10-23T21:28:34.404Z,8.30
2022-10-23T21:31:06.164Z,7.80
2022-10-23T21:33:33.863Z,9.37
2022-10-23T21:36:13.520Z,9.27
2022-10-23T21:38:41.308Z,8.73
2022-10-23T21:41:09.452Z,8.67
2022-10-23T21:43:36.174Z,7.77
2022-10-23T21:46:04.162Z,8.10
2022-10-23T21:48:30.878Z,8.60
2022-10-23T21:50:57.736Z,7.87
2022-10-23T21:53:24.601Z,6.93
2022-10-23T21:55:53.473Z,6.73
2022-10-23T21:58:20.074Z,6.87
2022-10-23T22:00:46.946Z,7.47
2022-10-23T22:03:13.562Z,7.93
2022-10-23T22:05:40.183Z,7.30
2022-10-23T22:08:06.808Z,6.77
2022-10-23T22:10:34.712Z,7.47
2022-10-23T22:13:01.949Z,7.67
2022-10-23T22:15:28.514Z,7.17
2022-10-23T22:17:55.530Z,8.03
2022-10-23T22:20:22.121Z,7.60
2022-10-23T22:22:48.767Z,7.87
2022-10-23T22:25:15.572Z,8.00
2022-10-23T22:27:42.583Z,6.80
2022-10-23T22:30:11.997Z,7.30
2022-10-23T22:32:38.580Z,7.00
2022-10-23T22:35:06.037Z,7.67
2022-10-23T22:37:32.659Z,7.17
2022-10-23T22:40:00.385Z,7.37
2022-10-23T22:42:26.943Z,7.73
2022-10-23T22:44:53.516Z,7.70
2022-10-23T22:47:20.735Z,6.30
2022-10-23T22:49:47.344Z,6.90
2022-10-23T22:52:13.976Z,7.20
2022-10-23T22:54:40.556Z,7.33
2022-10-23T22:57:07.274Z,7.40
2022-10-23T22:59:33.858Z,7.73
2022-10-23T23:02:00.442Z,7.17
2022-10-23T23:04:43.126Z,7.33
2022-10-23T23:07:11.221Z,7.67
2022-10-23T23:09:39.301Z,7.30
2022-10-23T23:12:07.116Z,7.87
2022-10-23T23:14:33.726Z,8.00
2022-10-23T23:17:00.565Z,6.50
2022-10-23T23:19:28.080Z,7.83
2022-10-23T23:21:56.303Z,6.20
2022-10-23T23:24:23.634Z,7.33
2022-10-23T23:26:50.423Z,6.87
2022-10-23T23:29:18.752Z,7.07
2022-10-23T23:31:45.687Z,6.47
2022-10-23T23:34:12.413Z,7.90
2022-10-23T23:36:40.438Z,7.33
2022-10-23T23:39:07.228Z,7.70
2022-10-23T23:41:33.847Z,7.47
2022-10-23T23:44:00.466Z,7.00
2022-10-23T23:46:27.084Z,6.83
2022-10-23T23:48:53.660Z,7.00
2022-10-23T23:51:22.359Z,7.70
2022-10-23T23:53:50.755Z,7.20
2022-10-23T23:56:18.339Z,6.87
2022-10-23T23:58:45.233Z,8.07
